createdAt,value
2018-07-26T00:01:38.957Z,94.57
2018-07-26T00:04:05.262Z,94.21
2018-07-26T00:06:31.576Z,93.73
2018-07-26T00:08:57.883Z,93.60
2018-07-26T00:11:24.196Z,93.48
2018-07-26T00:13:50.507Z,93.00
2018-07-26T00:16:16.815Z,92.85
2018-07-26T00:18:43.118Z,92.76
2018-07-26T00:21:09.453Z,93.04
2018-07-26T00:23:35.742Z,92.92
2018-07-26T00:26:02.046Z,92.71
2018-07-26T00:28:28.361Z,92.67
2018-07-26T00:30:54.662Z,92.69
2018-07-26T00:33:20.970Z,92.98
2018-07-26T00:35:47.284Z,93.11
2018-07-26T00:38:13.601Z,93.30
2018-07-26T00:40:39.919Z,93.35
2018-07-26T00:43:06.228Z,93.38
2018-07-26T00:45:32.543Z,93.31
2018-07-26T00:47:58.895Z,93.26
2018-07-26T00:50:25.204Z,93.65
2018-07-26T00:52:51.521Z,93.67
2018-07-26T00:55:17.838Z,93.79
2018-07-26T00:57:44.156Z,93.74
2018-07-26T01:00:10.501Z,93.54
2018-07-26T01:02:36.817Z,93.43
2018-07-26T01:05:03.142Z,93.48
2018-07-26T01:07:29.505Z,93.91
2018-07-26T01:09:55.822Z,93.75
2018-07-26T01:12:22.134Z,93.97
2018-07-26T01:14:48.445Z,94.08
2018-07-26T01:17:14.797Z,93.87
2018-07-26T01:19:41.103Z,93.96
2018-07-26T01:22:07.461Z,94.04
2018-07-26T01:24:33.767Z,94.38
2018-07-26T01:27:00.076Z,94.31
2018-07-26T01:29:26.394Z,94.27
2018-07-26T01:31:52.710Z,94.56
2018-07-26T01:34:19.020Z,94.78
2018-07-26T01:36:45.335Z,94.84
2018-07-26T01:39:11.650Z,94.69
2018-07-26T01:41:37.976Z,94.54
2018-07-26T01:44:04.290Z,94.54
2018-07-26T01:46:30.599Z,94.45
2018-07-26T01:48:56.906Z,94.77
2018-07-26T01:51:23.218Z,95.21
2018-07-26T01:53:49.537Z,96.91
2018-07-26T01:56:15.863Z,96.41
2018-07-26T01:58:42.178Z,96.47
2018-07-26T02:01:08.489Z,96.40
2018-07-26T02:03:34.808Z,96.20
2018-07-26T02:06:01.132Z,96.46
2018-07-26T02:08:27.450Z,97.64
2018-07-26T02:10:53.763Z,97.56
2018-07-26T02:13:20.077Z,99.15
2018-07-26T02:15:46.384Z,98.72
2018-07-26T02:18:12.701Z,99.38
2018-07-26T02:20:39.016Z,100.00
2018-07-26T02:23:05.347Z,100.00
2018-07-26T02:25:31.658Z,100.00
2018-07-26T02:27:57.968Z,100.00
2018-07-26T02:30:24.282Z,100.00
2018-07-26T02:32:50.605Z,100.00
2018-07-26T02:35:16.920Z,100.00
2018-07-26T02:37:43.233Z,100.00
2018-07-26T02:40:09.549Z,100.00
2018-07-26T02:42:35.865Z,100.00
2018-07-26T02:45:02.173Z,100.00
2018-07-26T02:47:28.497Z,100.00
2018-07-26T02:49:54.801Z,100.00
2018-07-26T02:52:21.109Z,100.00
2018-07-26T02:54:47.420Z,100.00
2018-07-26T02:57:13.737Z,100.00
2018-07-26T02:59:40.052Z,100.00
2018-07-26T03:02:06.371Z,100.00
2018-07-26T03:04:32.682Z,100.00
2018-07-26T03:06:58.991Z,100.00
2018-07-26T03:09:25.310Z,100.00
2018-07-26T03:11:51.617Z,100.00
2018-07-26T03:14:17.970Z,100.00
2018-07-26T03:16:44.290Z,100.00
2018-07-26T03:19:10.603Z,100.00
2018-07-26T03:21:36.923Z,100.00
2018-07-26T03:24:03.236Z,100.00
2018-07-26T03:26:29.546Z,100.00
2018-07-26T03:28:55.856Z,100.00
2018-07-26T03:31:22.166Z,100.00
2018-07-26T03:33:48.472Z,100.00
2018-07-26T03:36:14.791Z,100.00
2018-07-26T03:38:41.104Z,100.00
2018-07-26T03:41:07.451Z,100.00
2018-07-26T03:43:33.817Z,100.00
2018-07-26T03:46:00.078Z,100.00
2018-07-26T03:48:26.389Z,100.00
2018-07-26T03:50:52.707Z,100.00
2018-07-26T03:53:19.022Z,100.00
2018-07-26T03:55:45.340Z,100.00
2018-07-26T03:58:11.654Z,100.00
2018-07-26T04:00:37.975Z,100.00
2018-07-26T04:03:04.283Z,100.00
2018-07-26T04:05:30.611Z,100.00
2018-07-26T04:07:56.955Z,100.00
2018-07-26T04:10:23.263Z,100.00
2018-07-26T04:12:49.581Z,100.00
2018-07-26T04:15:15.896Z,100.00
2018-07-26T04:17:42.208Z,100.00
2018-07-26T04:20:08.551Z,100.00
2018-07-26T04:22:34.829Z,100.00
2018-07-26T04:25:01.145Z,100.00
2018-07-26T04:27:27.452Z,100.00
2018-07-26T04:29:53.760Z,100.00
2018-07-26T04:32:20.075Z,100.00
2018-07-26T04:34:46.389Z,100.00
2018-07-26T04:37:12.719Z,100.00
2018-07-26T04:39:39.024Z,100.00
2018-07-26T04:42:05.333Z,100.00
2018-07-26T04:44:31.649Z,100.00
2018-07-26T04:46:57.960Z,100.00
2018-07-26T04:49:24.270Z,100.00
2018-07-26T04:51:50.580Z,100.00
2018-07-26T04:54:16.901Z,100.00
2018-07-26T04:56:43.249Z,100.00
2018-07-26T04:59:09.569Z,100.00
2018-07-26T05:01:35.894Z,100.00
2018-07-26T05:04:02.220Z,100.00
2018-07-26T05:06:28.523Z,100.00
2018-07-26T05:08:54.837Z,100.00
2018-07-26T05:11:21.193Z,100.00
2018-07-26T05:13:47.500Z,100.00
2018-07-26T05:16:13.824Z,100.00
2018-07-26T05:18:40.144Z,100.00
2018-07-26T05:21:06.464Z,100.00
2018-07-26T05:23:32.816Z,100.00
2018-07-26T05:25:59.125Z,100.00
2018-07-26T05:28:25.445Z,100.00
2018-07-26T05:30:51.761Z,100.00
2018-07-26T05:33:18.114Z,100.00
2018-07-26T05:35:44.432Z,100.00
2018-07-26T05:38:10.754Z,100.00
2018-07-26T05:40:37.064Z,100.00
2018-07-26T05:43:03.383Z,100.00
2018-07-26T05:45:29.753Z,100.00
2018-07-26T05:47:56.063Z,100.00
2018-07-26T05:50:22.378Z,100.00
2018-07-26T05:52:48.691Z,100.00
2018-07-26T05:55:15.008Z,100.00
2018-07-26T05:57:41.372Z,100.00
2018-07-26T06:00:07.708Z,100.00
2018-07-26T06:02:34.003Z,100.00
2018-07-26T06:05:00.319Z,100.00
2018-07-26T06:07:26.672Z,100.00
2018-07-26T06:09:52.991Z,100.00
2018-07-26T06:12:19.309Z,100.00
2018-07-26T06:14:45.627Z,100.00
2018-07-26T06:17:11.986Z,100.00
2018-07-26T06:19:38.260Z,100.00
2018-07-26T06:22:04.613Z,100.00
2018-07-26T06:24:30.925Z,100.00
2018-07-26T06:26:57.284Z,100.00
2018-07-26T06:29:23.596Z,100.00
2018-07-26T06:31:49.913Z,100.00
2018-07-26T06:34:16.267Z,100.00
2018-07-26T06:36:42.576Z,100.00
2018-07-26T06:39:08.889Z,100.00
2018-07-26T06:41:35.259Z,100.00
2018-07-26T06:44:01.573Z,100.00
2018-07-26T06:46:27.908Z,100.00
2018-07-26T06:48:54.228Z,100.00
2018-07-26T06:51:20.549Z,100.00
2018-07-26T06:53:46.867Z,100.00
2018-07-26T06:56:13.196Z,100.00
2018-07-26T06:58:39.508Z,100.00
2018-07-26T07:01:05.820Z,100.00
2018-07-26T07:03:32.133Z,100.00
2018-07-26T07:05:58.487Z,100.00
2018-07-26T07:08:24.806Z,100.00
2018-07-26T07:10:51.169Z,100.00
2018-07-26T07:13:17.476Z,100.00
2018-07-26T07:15:43.793Z,100.00
2018-07-26T07:18:10.114Z,100.00
2018-07-26T07:20:36.469Z,100.00
2018-07-26T07:23:02.745Z,100.00
2018-07-26T07:25:29.066Z,100.00
2018-07-26T07:27:55.478Z,100.00
2018-07-26T07:30:21.705Z,100.00
2018-07-26T07:32:48.017Z,100.00
2018-07-26T07:35:14.339Z,100.00
2018-07-26T07:37:40.656Z,100.00
2018-07-26T07:40:06.976Z,100.00
2018-07-26T07:42:33.304Z,100.00
2018-07-26T07:44:59.625Z,100.00
2018-07-26T07:47:26.115Z,100.00
2018-07-26T07:49:52.257Z,100.00
2018-07-26T07:52:18.585Z,100.00
2018-07-26T07:54:44.901Z,100.00
2018-07-26T07:57:11.223Z,100.00
2018-07-26T07:59:37.608Z,100.00
2018-07-26T08:02:03.861Z,100.00
2018-07-26T08:04:30.176Z,100.00
2018-07-26T08:06:56.494Z,100.00
2018-07-26T08:09:22.812Z,100.00
2018-07-26T08:11:49.137Z,100.00
2018-07-26T08:14:15.484Z,100.00
2018-07-26T08:16:41.840Z,100.00
2018-07-26T08:19:08.198Z,100.00
2018-07-26T08:21:34.523Z,97.30
2018-07-26T08:24:00.840Z,96.10
2018-07-26T08:26:27.192Z,98.90
2018-07-26T08:28:53.495Z,94.56
2018-07-26T08:31:19.815Z,97.50
2018-07-26T08:33:46.127Z,98.29
2018-07-26T08:36:12.448Z,98.25
2018-07-26T08:38:38.765Z,94.06
2018-07-26T08:41:05.171Z,92.42
2018-07-26T08:43:31.449Z,91.60
2018-07-26T08:45:57.754Z,90.46
2018-07-26T08:48:24.074Z,91.88
2018-07-26T08:50:50.420Z,92.17
2018-07-26T08:53:16.734Z,93.37
2018-07-26T08:55:43.051Z,94.00
2018-07-26T08:58:09.407Z,95.34
2018-07-26T09:00:35.712Z,94.58
2018-07-26T09:03:02.029Z,94.10
2018-07-26T09:05:28.338Z,94.01
2018-07-26T09:07:54.662Z,91.56
2018-07-26T09:10:21.063Z,92.18
2018-07-26T09:12:47.369Z,92.30
2018-07-26T09:15:13.681Z,92.02
2018-07-26T09:17:39.996Z,92.84
2018-07-26T09:20:06.319Z,93.01
2018-07-26T09:22:32.632Z,91.43
2018-07-26T09:24:58.943Z,92.24
2018-07-26T09:27:25.258Z,91.16
2018-07-26T09:29:51.598Z,90.94
2018-07-26T09:32:17.921Z,91.07
2018-07-26T09:34:44.239Z,92.09
2018-07-26T09:37:10.552Z,92.12
2018-07-26T09:39:36.916Z,94.05
2018-07-26T09:42:03.187Z,94.11
2018-07-26T09:44:29.492Z,92.69
2018-07-26T09:46:55.809Z,89.46
2018-07-26T09:49:22.132Z,92.69
2018-07-26T09:51:48.456Z,93.82
2018-07-26T09:54:14.755Z,89.80
2018-07-26T09:56:41.072Z,90.07
2018-07-26T09:59:07.379Z,91.14
2018-07-26T10:01:33.702Z,89.39
2018-07-26T10:04:00.009Z,90.05
2018-07-26T10:06:26.323Z,91.28
2018-07-26T10:08:52.643Z,92.30
2018-07-26T10:11:18.963Z,88.73
2018-07-26T10:13:45.278Z,89.57
2018-07-26T10:16:11.598Z,85.64
2018-07-26T10:18:37.903Z,86.84
2018-07-26T10:21:04.219Z,85.60
2018-07-26T10:23:30.576Z,87.19
2018-07-26T10:25:56.890Z,88.21
2018-07-26T10:28:23.195Z,87.68
2018-07-26T10:30:49.503Z,87.25
2018-07-26T10:33:15.828Z,86.73
2018-07-26T10:35:42.142Z,80.79
2018-07-26T10:38:08.480Z,81.00
2018-07-26T10:40:34.804Z,80.81
2018-07-26T10:43:01.111Z,82.15
2018-07-26T10:45:27.415Z,82.83
2018-07-26T10:47:53.733Z,81.52
2018-07-26T10:50:20.089Z,76.89
2018-07-26T10:52:46.403Z,76.59
2018-07-26T10:55:12.711Z,71.91
2018-07-26T10:57:39.043Z,73.87
2018-07-26T11:00:05.356Z,74.91
2018-07-26T11:02:31.723Z,77.71
2018-07-26T11:04:58.042Z,78.45
2018-07-26T11:07:24.349Z,77.85
2018-07-26T11:09:50.681Z,77.50
2018-07-26T11:12:17.001Z,78.84
2018-07-26T11:14:43.312Z,76.92
2018-07-26T11:17:09.655Z,78.37
2018-07-26T11:19:35.964Z,76.60
2018-07-26T11:22:02.278Z,75.97
2018-07-26T11:24:28.587Z,77.79
2018-07-26T11:26:54.900Z,78.01
2018-07-26T11:29:21.219Z,75.69
2018-07-26T11:31:47.533Z,75.11
2018-07-26T11:34:13.851Z,74.32
2018-07-26T11:36:40.159Z,73.95
2018-07-26T11:39:06.474Z,73.12
2018-07-26T11:41:32.807Z,73.46
2018-07-26T11:43:59.088Z,71.78
2018-07-26T11:46:25.407Z,72.16
2018-07-26T11:48:51.721Z,74.61
2018-07-26T11:51:18.028Z,74.44
2018-07-26T11:53:44.343Z,72.09
2018-07-26T11:56:10.665Z,73.10
2018-07-26T11:58:36.980Z,73.09
2018-07-26T12:01:03.292Z,71.93
2018-07-26T12:03:29.608Z,72.66
2018-07-26T12:05:55.920Z,72.83
2018-07-26T12:08:22.236Z,73.96
2018-07-26T12:10:48.545Z,74.17
2018-07-26T12:13:14.856Z,74.98
2018-07-26T12:15:41.175Z,75.17
2018-07-26T12:18:07.484Z,75.28
2018-07-26T12:20:33.796Z,75.26
2018-07-26T12:23:00.127Z,75.06
2018-07-26T12:25:26.432Z,77.13
2018-07-26T12:27:52.739Z,75.22
2018-07-26T12:30:19.088Z,74.28
2018-07-26T12:32:45.400Z,74.59
2018-07-26T12:35:11.730Z,74.05
2018-07-26T12:37:38.040Z,74.00
2018-07-26T12:40:04.351Z,75.88
2018-07-26T12:42:30.661Z,77.03
2018-07-26T12:44:56.972Z,74.68
2018-07-26T12:47:23.293Z,75.15
2018-07-26T12:49:49.591Z,73.70
2018-07-26T12:52:15.904Z,75.38
2018-07-26T12:54:42.257Z,76.21
2018-07-26T12:57:08.520Z,75.57
2018-07-26T12:59:34.825Z,74.54
2018-07-26T13:02:01.156Z,75.38
2018-07-26T13:04:27.467Z,74.39
2018-07-26T13:06:53.815Z,73.65
2018-07-26T13:09:20.124Z,73.46
2018-07-26T13:11:46.437Z,75.35
2018-07-26T13:14:12.751Z,72.82
2018-07-26T13:16:39.059Z,74.00
2018-07-26T13:19:05.419Z,72.47
2018-07-26T13:21:31.729Z,73.63
2018-07-26T13:23:58.039Z,75.67
2018-07-26T13:26:24.346Z,76.51
2018-07-26T13:28:50.651Z,76.67
2018-07-26T13:31:16.967Z,74.98
2018-07-26T13:33:43.274Z,77.18
2018-07-26T13:36:09.660Z,75.99
2018-07-26T13:38:35.938Z,73.18
2018-07-26T13:41:02.241Z,73.42
2018-07-26T13:43:28.548Z,74.65
2018-07-26T13:45:54.870Z,76.42
2018-07-26T13:48:21.192Z,76.66
2018-07-26T13:50:47.557Z,75.09
2018-07-26T13:53:13.915Z,73.41
2018-07-26T13:55:40.228Z,72.06
2018-07-26T13:58:06.535Z,73.01
2018-07-26T14:00:32.953Z,72.13
2018-07-26T14:02:59.340Z,72.23
2018-07-26T14:05:25.789Z,73.97
2018-07-26T14:07:54.035Z,72.89
2018-07-26T14:10:18.484Z,71.68
2018-07-26T14:12:44.818Z,72.08
2018-07-26T14:15:11.108Z,72.52
2018-07-26T14:17:37.428Z,73.14
2018-07-26T14:20:03.744Z,73.62
2018-07-26T14:22:30.093Z,72.85
2018-07-26T14:24:56.384Z,72.09
2018-07-26T14:27:22.700Z,72.81
2018-07-26T14:29:49.054Z,72.26
2018-07-26T14:32:15.341Z,74.52
2018-07-26T14:34:41.656Z,77.23
2018-07-26T14:37:07.973Z,76.57
2018-07-26T14:39:34.296Z,77.25
2018-07-26T14:42:00.596Z,78.34
2018-07-26T14:44:26.917Z,78.07
2018-07-26T14:46:53.228Z,76.92
2018-07-26T14:49:19.558Z,77.45
2018-07-26T14:51:45.896Z,77.80
2018-07-26T14:54:12.203Z,79.12
2018-07-26T14:56:38.573Z,76.90
2018-07-26T14:59:04.879Z,76.07
2018-07-26T15:01:31.197Z,76.76
2018-07-26T15:03:57.518Z,79.59
2018-07-26T15:06:23.844Z,77.16
2018-07-26T15:08:50.208Z,73.60
2018-07-26T15:11:16.498Z,75.05
2018-07-26T15:13:42.803Z,73.56
2018-07-26T15:16:09.121Z,73.02
2018-07-26T15:18:35.436Z,73.96
2018-07-26T15:21:01.772Z,76.67
2018-07-26T15:23:28.104Z,75.92
2018-07-26T15:25:54.417Z,76.98
2018-07-26T15:28:20.736Z,74.91
2018-07-26T15:30:47.085Z,79.08
2018-07-26T15:33:13.377Z,76.65
2018-07-26T15:35:39.688Z,77.57
2018-07-26T15:38:06.005Z,77.79
2018-07-26T15:40:32.310Z,77.37
2018-07-26T15:42:58.620Z,78.62
2018-07-26T15:45:24.953Z,79.37
2018-07-26T15:47:51.276Z,79.54
2018-07-26T15:50:17.597Z,80.42
2018-07-26T15:52:43.904Z,80.90
2018-07-26T15:55:10.216Z,80.21
2018-07-26T15:57:36.533Z,79.80
2018-07-26T16:00:04.668Z,79.42
2018-07-26T16:02:30.976Z,77.07
2018-07-26T16:04:57.307Z,74.37
2018-07-26T16:07:23.635Z,73.56
2018-07-26T16:09:49.967Z,71.60
2018-07-26T16:12:16.333Z,72.10
2018-07-26T16:14:42.588Z,71.86
2018-07-26T16:17:08.914Z,72.42
2018-07-26T16:19:35.242Z,72.54
2018-07-26T16:22:01.605Z,73.06
2018-07-26T16:24:27.878Z,73.52
2018-07-26T16:26:54.212Z,74.09
2018-07-26T16:29:20.529Z,74.34
2018-07-26T16:31:46.841Z,74.40
2018-07-26T16:34:13.157Z,75.72
2018-07-26T16:36:39.463Z,74.99
2018-07-26T16:39:05.776Z,74.65
2018-07-26T16:41:32.109Z,75.80
2018-07-26T16:43:58.446Z,75.82
2018-07-26T16:46:24.759Z,75.93
2018-07-26T16:48:51.110Z,76.22
2018-07-26T16:51:17.428Z,76.23
2018-07-26T16:53:43.755Z,77.13
2018-07-26T16:56:10.081Z,77.71
2018-07-26T16:58:36.527Z,77.83
2018-07-26T17:01:02.698Z,78.86
2018-07-26T17:03:29.006Z,79.83
2018-07-26T17:05:55.319Z,80.38
2018-07-26T17:08:21.626Z,81.08
2018-07-26T17:10:47.944Z,81.56
2018-07-26T17:13:14.278Z,83.67
2018-07-26T17:15:40.583Z,85.14
2018-07-26T17:18:06.891Z,84.94
2018-07-26T17:20:33.218Z,81.23
2018-07-26T17:22:59.550Z,80.51
2018-07-26T17:25:25.877Z,80.87
2018-07-26T17:27:52.230Z,80.64
2018-07-26T17:30:18.560Z,82.76
2018-07-26T17:32:44.947Z,83.46
2018-07-26T17:35:11.295Z,85.33
2018-07-26T17:37:37.641Z,86.72
2018-07-26T17:40:04.000Z,88.03
2018-07-26T17:42:30.303Z,90.15
2018-07-26T17:44:56.683Z,92.23
2018-07-26T17:47:22.958Z,92.66
2018-07-26T17:49:49.274Z,93.95
2018-07-26T17:52:15.584Z,95.74
2018-07-26T17:54:41.939Z,95.78
2018-07-26T17:57:08.267Z,97.84
2018-07-26T17:59:34.591Z,100.00
2018-07-26T18:02:00.928Z,100.00
2018-07-26T18:04:27.314Z,100.00
2018-07-26T18:06:53.625Z,100.00
2018-07-26T18:09:19.937Z,100.00
2018-07-26T18:11:46.273Z,100.00
2018-07-26T18:14:15.340Z,100.00
2018-07-26T18:16:41.652Z,100.00
2018-07-26T18:19:07.968Z,100.00
2018-07-26T18:21:34.345Z,100.00
2018-07-26T18:24:00.651Z,100.00
2018-07-26T18:26:27.000Z,100.00
2018-07-26T18:28:53.312Z,100.00
2018-07-26T18:31:19.645Z,100.00
2018-07-26T18:33:45.947Z,100.00
2018-07-26T18:36:12.282Z,100.00
2018-07-26T18:38:38.612Z,100.00
2018-07-26T18:41:04.924Z,100.00
2018-07-26T18:43:31.287Z,100.00
2018-07-26T18:45:57.614Z,100.00
2018-07-26T18:48:23.942Z,100.00
2018-07-26T18:50:50.257Z,100.00
2018-07-26T18:53:16.574Z,100.00
2018-07-26T18:55:42.880Z,100.00
2018-07-26T18:58:09.188Z,100.00
2018-07-26T19:00:35.515Z,100.00
2018-07-26T19:03:01.818Z,100.00
2018-07-26T19:05:28.149Z,100.00
2018-07-26T19:07:54.455Z,100.00
2018-07-26T19:10:20.782Z,100.00
2018-07-26T19:12:47.088Z,100.00
2018-07-26T19:15:13.400Z,100.00
2018-07-26T19:17:39.714Z,100.00
2018-07-26T19:20:06.043Z,100.00
2018-07-26T19:22:32.362Z,100.00
2018-07-26T19:24:58.729Z,100.00
2018-07-26T19:27:25.060Z,100.00
2018-07-26T19:29:51.376Z,100.00
2018-07-26T19:32:17.701Z,100.00
2018-07-26T19:34:44.016Z,100.00
2018-07-26T19:37:10.350Z,100.00
2018-07-26T19:39:36.700Z,100.00
2018-07-26T19:42:03.051Z,100.00
2018-07-26T19:44:29.402Z,100.00
2018-07-26T19:46:55.730Z,100.00
2018-07-26T19:49:22.067Z,100.00
2018-07-26T19:51:48.397Z,100.00
2018-07-26T19:54:14.769Z,100.00
2018-07-26T19:56:41.090Z,100.00
2018-07-26T19:59:07.418Z,100.00
2018-07-26T20:01:33.747Z,100.00
2018-07-26T20:04:00.137Z,100.00
2018-07-26T20:06:26.364Z,100.00
2018-07-26T20:08:52.685Z,100.00
2018-07-26T20:11:18.996Z,100.00
2018-07-26T20:13:45.344Z,100.00
2018-07-26T20:16:11.707Z,100.00
2018-07-26T20:18:38.016Z,100.00
2018-07-26T20:21:04.379Z,100.00
2018-07-26T20:23:30.722Z,100.00
2018-07-26T20:25:57.042Z,100.00
2018-07-26T20:28:23.349Z,100.00
2018-07-26T20:30:49.658Z,100.00
2018-07-26T20:33:15.967Z,100.00
2018-07-26T20:35:42.294Z,100.00
2018-07-26T20:38:08.622Z,100.00
2018-07-26T20:40:34.961Z,100.00
2018-07-26T20:43:01.260Z,100.00
2018-07-26T20:45:27.581Z,100.00
2018-07-26T20:47:53.886Z,99.15
2018-07-26T20:50:20.207Z,98.07
2018-07-26T20:52:46.529Z,96.90
2018-07-26T20:55:12.838Z,95.85
2018-07-26T20:57:39.147Z,96.07
2018-07-26T21:00:05.475Z,95.21
2018-07-26T21:02:31.801Z,95.04
2018-07-26T21:04:58.121Z,94.59
2018-07-26T21:07:24.425Z,94.88
2018-07-26T21:09:50.745Z,94.25
2018-07-26T21:12:17.050Z,93.72
2018-07-26T21:14:43.355Z,93.89
2018-07-26T21:17:09.675Z,93.71
2018-07-26T21:19:35.987Z,93.22
2018-07-26T21:22:02.302Z,92.83
2018-07-26T21:24:28.638Z,93.22
2018-07-26T21:26:54.959Z,92.94
2018-07-26T21:29:21.258Z,92.35
2018-07-26T21:31:47.633Z,92.50
2018-07-26T21:34:13.878Z,93.59
2018-07-26T21:36:40.198Z,93.74
2018-07-26T21:39:06.497Z,93.79
2018-07-26T21:41:32.809Z,95.50
2018-07-26T21:43:59.121Z,95.96
2018-07-26T21:46:25.465Z,97.29
2018-07-26T21:48:51.771Z,97.62
2018-07-26T21:51:18.074Z,98.00
2018-07-26T21:53:44.429Z,97.24
2018-07-26T21:56:10.738Z,96.88
2018-07-26T21:58:37.049Z,95.87
2018-07-26T22:01:03.401Z,94.56
2018-07-26T22:03:29.714Z,95.47
2018-07-26T22:05:56.065Z,96.24
2018-07-26T22:08:22.373Z,96.68
2018-07-26T22:10:48.681Z,94.60
2018-07-26T22:13:14.999Z,94.60
2018-07-26T22:15:41.342Z,94.27
2018-07-26T22:18:07.651Z,94.82
2018-07-26T22:20:33.953Z,95.12
2018-07-26T22:23:00.262Z,94.08
2018-07-26T22:25:26.566Z,94.97
2018-07-26T22:27:52.874Z,94.77
2018-07-26T22:30:19.179Z,95.46
2018-07-26T22:32:45.487Z,93.34
2018-07-26T22:35:11.791Z,93.22
2018-07-26T22:37:38.105Z,93.91
2018-07-26T22:40:04.411Z,94.38
2018-07-26T22:42:30.717Z,94.47
2018-07-26T22:44:57.061Z,94.72
2018-07-26T22:47:23.366Z,95.21
2018-07-26T22:49:49.675Z,95.10
2018-07-26T22:52:15.986Z,96.22
2018-07-26T22:54:42.283Z,96.42
2018-07-26T22:57:08.594Z,97.07
2018-07-26T22:59:34.893Z,97.82
2018-07-26T23:02:01.203Z,99.12
2018-07-26T23:04:27.559Z,100.00
2018-07-26T23:06:53.853Z,99.91
2018-07-26T23:09:20.157Z,99.30
2018-07-26T23:11:46.504Z,100.00
2018-07-26T23:14:12.855Z,100.00
2018-07-26T23:16:39.162Z,100.00
2018-07-26T23:19:05.513Z,100.00
2018-07-26T23:21:31.823Z,100.00
2018-07-26T23:23:58.133Z,100.00
2018-07-26T23:26:24.448Z,100.00
2018-07-26T23:28:50.750Z,100.00
2018-07-26T23:31:17.065Z,100.00
2018-07-26T23:33:43.377Z,100.00
2018-07-26T23:36:09.688Z,100.00
2018-07-26T23:38:36.004Z,100.00
2018-07-26T23:41:02.310Z,100.00
2018-07-26T23:43:28.620Z,100.00
2018-07-26T23:45:54.933Z,100.00
2018-07-26T23:48:21.244Z,100.00
2018-07-26T23:50:47.561Z,100.00
2018-07-26T23:53:13.874Z,100.00
2018-07-26T23:55:40.183Z,100.00
2018-07-26T23:58:06.497Z,100.00
